createdAt,value
2023-05-20T00:02:29.259Z,0.90
2023-05-20T00:04:57.453Z,1.33
2023-05-20T00:07:25.492Z,1.00
2023-05-20T00:09:53.522Z,1.00
2023-05-20T00:12:21.536Z,1.03
2023-05-20T00:14:49.478Z,0.80
2023-05-20T00:17:17.679Z,0.90
2023-05-20T00:19:47.020Z,0.90
2023-05-20T00:22:14.954Z,1.00
2023-05-20T00:24:42.876Z,1.00
2023-05-20T00:27:10.877Z,1.00
2023-05-20T00:29:38.809Z,0.90
2023-05-20T00:32:07.748Z,0.97
2023-05-20T00:34:35.823Z,1.00
2023-05-20T00:37:05.134Z,1.00
2023-05-20T00:39:33.088Z,1.00
2023-05-20T00:42:03.488Z,0.97
2023-05-20T00:44:31.480Z,0.90
2023-05-20T00:46:59.401Z,1.13
2023-05-20T00:49:27.402Z,0.90
2023-05-20T00:51:56.017Z,1.00
2023-05-20T00:54:25.343Z,1.00
2023-05-20T00:56:53.366Z,0.80
2023-05-20T00:59:21.652Z,0.77
2023-05-20T01:01:49.609Z,0.80
2023-05-20T01:04:17.601Z,0.80
2023-05-20T01:06:46.306Z,0.70
2023-05-20T01:09:14.978Z,0.70
2023-05-20T01:11:48.658Z,0.80
2023-05-20T01:14:17.778Z,0.93
2023-05-20T01:16:48.143Z,1.00
2023-05-20T01:19:23.771Z,0.73
2023-05-20T01:21:51.974Z,0.90
2023-05-20T01:24:21.278Z,1.13
2023-05-20T01:26:50.441Z,0.80
2023-05-20T01:29:18.861Z,0.90
2023-05-20T01:31:48.402Z,0.80
2023-05-20T01:34:17.011Z,0.73
2023-05-20T01:36:47.263Z,1.00
2023-05-20T01:39:15.315Z,0.80
2023-05-20T01:41:45.170Z,0.90
2023-05-20T01:44:13.236Z,1.10
2023-05-20T01:46:41.293Z,0.70
2023-05-20T01:49:09.319Z,0.90
2023-05-20T01:51:38.086Z,0.87
2023-05-20T01:54:06.073Z,0.80
2023-05-20T01:56:34.199Z,0.50
2023-05-20T01:59:03.543Z,0.90
2023-05-20T02:01:31.583Z,0.70
2023-05-20T02:03:59.528Z,0.73
2023-05-20T02:06:27.464Z,0.90
2023-05-20T02:08:55.460Z,1.10
2023-05-20T02:11:23.428Z,0.67
2023-05-20T02:13:51.466Z,0.97
2023-05-20T02:16:20.959Z,0.77
2023-05-20T02:18:48.957Z,0.90
2023-05-20T02:21:16.899Z,0.90
2023-05-20T02:23:45.296Z,0.70
2023-05-20T02:26:13.253Z,0.80
2023-05-20T02:28:46.558Z,0.80
2023-05-20T02:31:14.514Z,0.90
2023-05-20T02:33:43.883Z,0.80
2023-05-20T02:36:11.860Z,1.00
2023-05-20T02:38:39.861Z,0.80
2023-05-20T02:41:07.892Z,0.70
2023-05-20T02:43:36.486Z,0.87
2023-05-20T02:46:04.886Z,1.00
2023-05-20T02:48:32.842Z,0.90
2023-05-20T02:51:02.187Z,0.80
2023-05-20T02:53:30.106Z,0.70
2023-05-20T02:55:58.804Z,0.80
2023-05-20T02:58:27.815Z,0.80
2023-05-20T03:00:57.814Z,1.03
2023-05-20T03:03:41.392Z,0.93
2023-05-20T03:06:10.897Z,1.20
2023-05-20T03:08:40.320Z,0.77
2023-05-20T03:11:08.250Z,0.80
2023-05-20T03:13:36.287Z,0.97
2023-05-20T03:16:04.419Z,0.80
2023-05-20T03:18:32.365Z,0.77
2023-05-20T03:21:00.299Z,0.80
2023-05-20T03:23:29.635Z,1.10
2023-05-20T03:25:57.590Z,0.80
2023-05-20T03:28:25.518Z,1.07
2023-05-20T03:30:53.497Z,0.80
2023-05-20T03:33:22.807Z,0.70
2023-05-20T03:35:50.756Z,0.80
2023-05-20T03:38:18.692Z,0.87
2023-05-20T03:40:48.049Z,0.70
2023-05-20T03:43:15.969Z,1.07
2023-05-20T03:45:43.962Z,0.80
2023-05-20T03:48:11.868Z,0.90
2023-05-20T03:50:39.795Z,0.80
2023-05-20T03:53:07.754Z,0.80
2023-05-20T03:55:36.017Z,1.00
2023-05-20T03:58:05.597Z,0.87
2023-05-20T04:00:33.532Z,1.00
2023-05-20T04:03:02.137Z,0.77
2023-05-20T04:05:30.121Z,1.00
2023-05-20T04:07:58.583Z,1.10
2023-05-20T04:10:26.547Z,1.10
2023-05-20T04:12:55.004Z,0.90
2023-05-20T04:15:25.296Z,1.00
2023-05-20T04:17:53.560Z,0.90
2023-05-20T04:20:21.519Z,1.50
2023-05-20T04:22:49.496Z,1.20
2023-05-20T04:25:17.685Z,0.90
2023-05-20T04:27:46.042Z,1.10
2023-05-20T04:30:14.302Z,1.03
2023-05-20T04:32:43.736Z,0.97
2023-05-20T04:35:13.970Z,0.90
2023-05-20T04:37:44.651Z,1.30
2023-05-20T04:40:13.942Z,0.80
2023-05-20T04:42:41.900Z,0.90
2023-05-20T04:45:10.608Z,1.10
2023-05-20T04:47:39.698Z,0.90
2023-05-20T04:50:11.770Z,0.90
2023-05-20T04:52:40.142Z,0.90
2023-05-20T04:55:09.801Z,0.90
2023-05-20T04:57:39.654Z,1.00
2023-05-20T05:00:09.288Z,0.93
2023-05-20T05:02:37.615Z,1.00
2023-05-20T05:05:06.300Z,0.80
2023-05-20T05:07:35.873Z,0.73
2023-05-20T05:10:03.900Z,0.93
2023-05-20T05:12:31.874Z,0.90
2023-05-20T05:15:00.074Z,0.90
2023-05-20T05:17:28.918Z,1.00
2023-05-20T05:19:57.194Z,1.20
2023-05-20T05:22:25.162Z,0.73
2023-05-20T05:24:55.877Z,1.00
2023-05-20T05:27:24.080Z,0.97
2023-05-20T05:29:52.010Z,0.90
2023-05-20T05:32:19.975Z,1.00
2023-05-20T05:34:47.994Z,0.80
2023-05-20T05:37:15.947Z,0.80
2023-05-20T05:39:43.932Z,0.83
2023-05-20T05:42:13.240Z,1.10
2023-05-20T05:44:41.188Z,1.00
2023-05-20T05:47:09.737Z,1.00
2023-05-20T05:49:37.815Z,1.00
2023-05-20T05:52:06.458Z,1.10
2023-05-20T05:54:34.452Z,1.00
2023-05-20T05:57:02.973Z,1.00
2023-05-20T05:59:33.308Z,1.03
2023-05-20T06:02:01.379Z,0.70
2023-05-20T06:04:29.335Z,0.93
2023-05-20T06:06:57.336Z,0.73
2023-05-20T06:09:25.291Z,0.97
2023-05-20T06:11:53.274Z,0.90
2023-05-20T06:14:21.248Z,0.90
2023-05-20T06:16:50.575Z,1.03
2023-05-20T06:19:19.213Z,0.80
2023-05-20T06:21:47.197Z,0.90
2023-05-20T06:24:15.172Z,0.93
2023-05-20T06:26:43.262Z,1.10
2023-05-20T06:29:11.219Z,0.90
2023-05-20T06:31:39.216Z,1.00
2023-05-20T06:34:08.566Z,1.03
2023-05-20T06:36:36.522Z,1.00
2023-05-20T06:39:06.542Z,1.20
2023-05-20T06:41:34.499Z,1.10
2023-05-20T06:44:02.491Z,0.77
2023-05-20T06:46:30.498Z,1.00
2023-05-20T06:48:58.459Z,0.90
2023-05-20T06:51:28.117Z,1.00
2023-05-20T06:53:56.307Z,1.07
2023-05-20T06:56:24.529Z,1.00
2023-05-20T06:58:52.472Z,1.07
2023-05-20T07:01:20.562Z,1.07
2023-05-20T07:03:48.592Z,1.30
2023-05-20T07:06:16.569Z,1.20
2023-05-20T07:08:46.120Z,1.30
2023-05-20T07:11:14.080Z,1.33
2023-05-20T07:13:42.055Z,1.20
2023-05-20T07:16:10.153Z,1.03
2023-05-20T07:18:38.158Z,0.87
2023-05-20T07:21:06.159Z,1.20
2023-05-20T07:23:34.084Z,1.40
2023-05-20T07:26:03.461Z,1.00
2023-05-20T07:28:31.489Z,1.13
2023-05-20T07:31:00.376Z,1.13
2023-05-20T07:33:29.695Z,1.00
2023-05-20T07:35:57.698Z,1.00
2023-05-20T07:38:25.670Z,0.90
2023-05-20T07:40:53.576Z,1.20
2023-05-20T07:43:23.010Z,0.93
2023-05-20T07:45:54.053Z,1.07
2023-05-20T07:48:22.008Z,1.30
2023-05-20T07:50:49.932Z,1.00
2023-05-20T07:53:17.904Z,0.87
2023-05-20T07:55:45.928Z,1.43
2023-05-20T07:58:13.875Z,0.77
2023-05-20T08:00:43.284Z,1.33
2023-05-20T08:03:11.957Z,1.13
2023-05-20T08:05:40.527Z,1.20
2023-05-20T08:08:10.534Z,2.00
2023-05-20T08:11:05.406Z,1.30
2023-05-20T08:13:33.588Z,1.83
2023-05-20T08:16:04.009Z,1.43
2023-05-20T08:18:32.862Z,1.50
2023-05-20T08:21:00.966Z,1.43
2023-05-20T08:23:28.914Z,1.50
2023-05-20T08:25:57.598Z,1.30
2023-05-20T08:28:26.018Z,1.43
2023-05-20T08:30:54.075Z,1.47
2023-05-20T08:33:23.552Z,1.77
2023-05-20T08:35:51.580Z,1.77
2023-05-20T08:38:19.540Z,1.23
2023-05-20T08:40:47.647Z,2.47
2023-05-20T08:43:16.402Z,1.70
2023-05-20T08:45:44.396Z,1.90
2023-05-20T08:48:12.772Z,2.00
2023-05-20T08:50:42.322Z,2.33
2023-05-20T08:53:10.383Z,1.10
2023-05-20T08:55:45.043Z,1.93
2023-05-20T08:58:15.516Z,1.50
2023-05-20T09:00:43.447Z,2.27
2023-05-20T09:03:11.462Z,1.37
2023-05-20T09:05:39.436Z,1.33
2023-05-20T09:08:10.104Z,1.40
2023-05-20T09:10:39.425Z,1.33
2023-05-20T09:13:08.206Z,1.10
2023-05-20T09:15:37.184Z,1.50
2023-05-20T09:18:08.314Z,1.40
2023-05-20T09:20:38.234Z,1.33
2023-05-20T09:23:09.404Z,1.30
2023-05-20T09:25:38.095Z,1.63
2023-05-20T09:28:06.224Z,1.37
2023-05-20T09:30:34.375Z,1.73
2023-05-20T09:33:04.821Z,1.40
2023-05-20T09:35:35.911Z,1.20
2023-05-20T09:38:06.339Z,1.33
2023-05-20T09:40:37.708Z,1.60
2023-05-20T09:43:07.320Z,1.40
2023-05-20T09:45:35.754Z,1.10
2023-05-20T09:48:04.253Z,1.30
2023-05-20T09:50:33.286Z,2.83
2023-05-20T09:53:04.615Z,2.90
2023-05-20T09:55:33.069Z,2.30
2023-05-20T09:58:04.448Z,1.90
2023-05-20T10:00:32.451Z,1.27
2023-05-20T10:03:01.104Z,1.17
2023-05-20T10:05:30.930Z,1.40
2023-05-20T10:08:29.330Z,1.17
2023-05-20T10:11:08.188Z,1.40
2023-05-20T10:13:47.531Z,1.40
2023-05-20T10:16:25.198Z,1.20
2023-05-20T10:19:00.108Z,1.33
2023-05-20T10:21:28.225Z,1.50
2023-05-20T10:23:56.359Z,1.40
2023-05-20T10:26:24.298Z,1.37
2023-05-20T10:28:53.655Z,1.27
2023-05-20T10:31:23.168Z,1.10
2023-05-20T10:33:54.218Z,1.60
2023-05-20T10:36:26.981Z,1.27
2023-05-20T10:38:55.959Z,1.20
2023-05-20T10:41:27.817Z,1.07
2023-05-20T10:44:04.286Z,1.33
2023-05-20T10:46:41.789Z,1.10
2023-05-20T10:49:24.190Z,1.27
2023-05-20T10:51:55.661Z,1.10
2023-05-20T10:54:24.136Z,1.40
2023-05-20T10:56:53.574Z,1.33
2023-05-20T10:59:23.267Z,1.20
2023-05-20T11:01:51.272Z,1.20
2023-05-20T11:04:19.904Z,1.30
2023-05-20T11:06:53.818Z,1.07
2023-05-20T11:09:21.951Z,1.30
2023-05-20T11:11:50.564Z,1.20
2023-05-20T11:14:20.136Z,1.10
2023-05-20T11:16:53.099Z,1.10
2023-05-20T11:19:21.595Z,1.43
2023-05-20T11:21:50.160Z,1.60
2023-05-20T11:24:25.335Z,1.13
2023-05-20T11:26:53.834Z,1.20
2023-05-20T11:29:22.514Z,1.20
2023-05-20T11:31:52.358Z,1.23
2023-05-20T11:34:25.025Z,1.23
2023-05-20T11:36:58.499Z,1.10
2023-05-20T11:39:28.073Z,1.83
2023-05-20T11:41:56.108Z,1.70
2023-05-20T11:44:24.192Z,1.70
2023-05-20T11:46:53.584Z,1.40
2023-05-20T11:49:21.500Z,1.60
2023-05-20T11:51:49.653Z,1.40
2023-05-20T11:54:17.849Z,1.20
2023-05-20T11:56:46.131Z,1.00
2023-05-20T11:59:16.230Z,1.13
2023-05-20T12:01:44.604Z,1.40
2023-05-20T12:04:14.870Z,1.27
2023-05-20T12:06:44.222Z,1.87
2023-05-20T12:09:14.071Z,2.10
2023-05-20T12:11:42.433Z,4.17
2023-05-20T12:14:10.905Z,2.20
2023-05-20T12:16:39.449Z,2.33
2023-05-20T12:19:08.804Z,1.80
2023-05-20T12:21:38.204Z,1.93
2023-05-20T12:24:08.551Z,1.63
2023-05-20T12:26:36.579Z,1.87
2023-05-20T12:29:04.591Z,2.10
2023-05-20T12:31:34.643Z,1.83
2023-05-20T12:34:03.147Z,2.00
2023-05-20T12:36:31.577Z,1.80
2023-05-20T12:39:00.934Z,1.60
2023-05-20T12:41:28.865Z,1.50
2023-05-20T12:43:56.848Z,1.50
2023-05-20T12:46:24.832Z,1.30
2023-05-20T12:48:53.254Z,1.83
2023-05-20T12:51:21.247Z,1.50
2023-05-20T12:53:49.263Z,1.50
2023-05-20T12:56:19.348Z,1.60
2023-05-20T12:58:47.315Z,1.87
2023-05-20T13:01:15.274Z,1.47
2023-05-20T13:03:43.409Z,1.23
2023-05-20T13:06:11.395Z,1.40
2023-05-20T13:08:39.357Z,1.53
2023-05-20T13:11:07.354Z,1.60
2023-05-20T13:13:36.679Z,1.40
2023-05-20T13:16:05.368Z,1.60
2023-05-20T13:18:33.378Z,1.33
2023-05-20T13:21:01.302Z,1.63
2023-05-20T13:23:32.191Z,1.60
2023-05-20T13:26:00.376Z,1.53
2023-05-20T13:28:28.356Z,1.40
2023-05-20T13:30:57.782Z,1.37
2023-05-20T13:33:25.757Z,1.40
2023-05-20T13:35:53.713Z,1.83
2023-05-20T13:38:21.702Z,1.30
2023-05-20T13:40:49.804Z,1.53
2023-05-20T13:43:17.742Z,1.30
2023-05-20T13:45:45.734Z,1.90
2023-05-20T13:48:15.164Z,1.40
2023-05-20T13:50:43.181Z,1.20
2023-05-20T13:53:12.577Z,1.30
2023-05-20T13:55:40.586Z,1.40
2023-05-20T13:58:09.192Z,1.30
2023-05-20T14:00:37.413Z,1.37
2023-05-20T14:03:08.986Z,1.20
2023-05-20T14:05:38.488Z,1.50
2023-05-20T14:08:06.742Z,1.20
2023-05-20T14:10:34.909Z,1.43
2023-05-20T14:13:03.188Z,1.47
2023-05-20T14:15:31.497Z,1.47
2023-05-20T14:17:59.686Z,1.40
2023-05-20T14:20:27.709Z,1.60
2023-05-20T14:22:57.340Z,1.20
2023-05-20T14:25:25.328Z,1.60
2023-05-20T14:27:53.242Z,1.47
2023-05-20T14:30:21.200Z,1.50
2023-05-20T14:32:49.186Z,1.57
2023-05-20T14:35:18.287Z,1.40
2023-05-20T14:37:46.412Z,1.60
2023-05-20T14:40:16.644Z,1.47
2023-05-20T14:42:44.583Z,1.70
2023-05-20T14:45:12.675Z,1.40
2023-05-20T14:47:41.095Z,1.43
2023-05-20T14:50:09.532Z,1.30
2023-05-20T14:52:37.517Z,1.53
2023-05-20T14:55:06.138Z,1.60
2023-05-20T14:57:35.728Z,1.43
2023-05-20T15:00:04.174Z,1.47
2023-05-20T15:02:32.307Z,1.60
2023-05-20T15:05:00.306Z,1.30
2023-05-20T15:07:28.234Z,1.90
2023-05-20T15:09:56.402Z,1.57
2023-05-20T15:12:24.390Z,1.80
2023-05-20T15:14:53.701Z,1.60
2023-05-20T15:17:21.745Z,1.80
2023-05-20T15:19:49.919Z,1.60
2023-05-20T15:22:17.844Z,1.50
2023-05-20T15:24:45.838Z,1.63
2023-05-20T15:27:13.779Z,1.30
2023-05-20T15:29:41.739Z,1.10
2023-05-20T15:32:11.308Z,1.30
2023-05-20T15:34:39.276Z,1.50
2023-05-20T15:37:07.211Z,1.40
2023-05-20T15:39:38.373Z,1.40
2023-05-20T15:42:06.543Z,1.20
2023-05-20T15:44:36.096Z,1.40
2023-05-20T15:47:05.853Z,1.30
2023-05-20T15:49:35.472Z,1.40
2023-05-20T15:52:04.399Z,1.30
2023-05-20T15:54:32.630Z,1.40
2023-05-20T15:57:00.630Z,1.50
2023-05-20T15:59:28.562Z,1.30
2023-05-20T16:01:56.689Z,1.13
2023-05-20T16:04:24.890Z,1.30
2023-05-20T16:06:54.293Z,1.50
2023-05-20T16:09:22.468Z,1.40
2023-05-20T16:11:50.472Z,1.60
2023-05-20T16:14:18.572Z,1.30
2023-05-20T16:16:46.677Z,1.40
2023-05-20T16:19:14.744Z,1.37
2023-05-20T16:21:42.724Z,1.40
2023-05-20T16:24:12.464Z,1.43
2023-05-20T16:26:40.595Z,1.30
2023-05-20T16:29:08.599Z,1.27
2023-05-20T16:31:36.576Z,1.30
2023-05-20T16:34:05.079Z,1.70
2023-05-20T16:36:33.019Z,1.43
2023-05-20T16:39:00.988Z,1.23
2023-05-20T16:41:30.763Z,1.53
2023-05-20T16:43:58.710Z,1.40
2023-05-20T16:46:26.667Z,1.70
2023-05-20T16:48:54.613Z,1.33
2023-05-20T16:51:22.721Z,1.43
2023-05-20T16:53:50.778Z,1.47
2023-05-20T16:56:18.755Z,1.50
2023-05-20T16:58:48.528Z,1.60
2023-05-20T17:01:17.359Z,1.50
2023-05-20T17:03:45.414Z,1.63
2023-05-20T17:06:13.469Z,1.80
2023-05-20T17:08:41.391Z,1.77
2023-05-20T17:11:09.346Z,1.50
2023-05-20T17:13:37.274Z,1.60
2023-05-20T17:16:09.645Z,1.50
2023-05-20T17:18:37.817Z,1.40
2023-05-20T17:21:06.071Z,1.30
2023-05-20T17:23:34.068Z,1.70
2023-05-20T17:26:02.065Z,1.90
2023-05-20T17:28:29.998Z,1.60
2023-05-20T17:30:57.970Z,1.70
2023-05-20T17:33:27.401Z,1.73
2023-05-20T17:35:55.414Z,1.60
2023-05-20T17:38:26.195Z,1.50
2023-05-20T17:40:54.215Z,1.80
2023-05-20T17:43:22.300Z,1.60
2023-05-20T17:45:50.325Z,1.97
2023-05-20T17:48:18.305Z,1.80
2023-05-20T17:50:47.769Z,1.53
2023-05-20T17:53:15.865Z,1.40
2023-05-20T17:55:47.050Z,1.50
2023-05-20T17:58:15.064Z,1.53
2023-05-20T18:00:43.023Z,1.60
2023-05-20T18:03:11.236Z,1.80
2023-05-20T18:05:39.210Z,1.67
2023-05-20T18:08:08.568Z,1.50
2023-05-20T18:10:36.819Z,1.73
2023-05-20T18:13:05.010Z,1.83
2023-05-20T18:15:32.943Z,1.70
2023-05-20T18:18:01.478Z,1.23
2023-05-20T18:20:29.592Z,1.73
2023-05-20T18:22:58.584Z,1.60
2023-05-20T18:25:28.143Z,1.80
2023-05-20T18:27:56.083Z,1.70
2023-05-20T18:30:24.335Z,1.60
2023-05-20T18:32:53.291Z,1.90
2023-05-20T18:35:21.354Z,2.00
2023-05-20T18:37:49.391Z,1.67
2023-05-20T18:40:19.080Z,1.60
2023-05-20T18:42:48.561Z,1.67
2023-05-20T18:45:16.702Z,2.93
2023-05-20T18:47:44.712Z,2.97
2023-05-20T18:50:13.139Z,2.50
2023-05-20T18:52:41.079Z,2.70
2023-05-20T18:55:09.732Z,2.37
2023-05-20T18:57:39.256Z,2.67
2023-05-20T19:00:12.391Z,2.57
2023-05-20T19:02:40.758Z,2.17
2023-05-20T19:05:11.405Z,2.50
2023-05-20T19:07:39.802Z,2.57
2023-05-20T19:10:09.205Z,2.30
2023-05-20T19:12:37.270Z,2.53
2023-05-20T19:15:05.957Z,2.50
2023-05-20T19:17:35.269Z,2.40
2023-05-20T19:20:06.878Z,2.13
2023-05-20T19:22:35.053Z,2.57
2023-05-20T19:25:03.056Z,2.50
2023-05-20T19:27:31.265Z,2.53
2023-05-20T19:29:59.377Z,2.20
2023-05-20T19:32:27.387Z,2.60
2023-05-20T19:34:56.735Z,2.00
2023-05-20T19:37:25.358Z,2.20
2023-05-20T19:39:53.355Z,2.17
2023-05-20T19:42:21.351Z,2.50
2023-05-20T19:44:49.686Z,2.40
2023-05-20T19:47:17.695Z,1.90
2023-05-20T19:49:45.665Z,2.20
2023-05-20T19:52:14.962Z,2.10
2023-05-20T19:54:43.190Z,2.23
2023-05-20T19:57:11.305Z,2.50
2023-05-20T19:59:39.296Z,2.00
2023-05-20T20:02:07.458Z,2.37
2023-05-20T20:04:35.412Z,2.13
2023-05-20T20:07:03.660Z,2.10
2023-05-20T20:09:33.127Z,2.20
2023-05-20T20:12:02.708Z,2.10
2023-05-20T20:14:30.692Z,2.30
2023-05-20T20:16:59.757Z,2.00
2023-05-20T20:19:28.621Z,2.20
2023-05-20T20:21:58.229Z,2.00
2023-05-20T20:24:26.898Z,2.00
2023-05-20T20:26:56.997Z,2.23
2023-05-20T20:29:25.072Z,1.80
2023-05-20T20:31:53.242Z,2.17
2023-05-20T20:34:22.076Z,2.10
2023-05-20T20:36:51.272Z,2.10
2023-05-20T20:39:19.993Z,1.77
2023-05-20T20:41:50.269Z,2.63
2023-05-20T20:44:22.575Z,2.33
2023-05-20T20:46:51.591Z,1.33
2023-05-20T20:49:19.876Z,2.23
2023-05-20T20:51:48.412Z,2.23
2023-05-20T20:54:16.673Z,1.93
2023-05-20T20:56:47.068Z,1.83
2023-05-20T20:59:15.993Z,2.20
2023-05-20T21:01:45.726Z,2.10
2023-05-20T21:04:14.585Z,1.83
2023-05-20T21:06:45.973Z,1.70
2023-05-20T21:09:14.038Z,1.80
2023-05-20T21:11:43.031Z,1.87
2023-05-20T21:14:11.368Z,2.10
2023-05-20T21:16:39.406Z,1.90
2023-05-20T21:19:08.817Z,2.00
2023-05-20T21:21:36.982Z,1.73
2023-05-20T21:24:05.142Z,1.80
2023-05-20T21:26:33.089Z,1.80
2023-05-20T21:29:01.071Z,1.73
2023-05-20T21:31:29.055Z,1.50
2023-05-20T21:33:56.979Z,1.80
2023-05-20T21:36:26.322Z,1.53
2023-05-20T21:38:54.240Z,2.10
2023-05-20T21:41:23.511Z,1.80
2023-05-20T21:43:51.613Z,1.83
2023-05-20T21:46:19.579Z,1.73
2023-05-20T21:48:47.551Z,1.90
2023-05-20T21:51:15.647Z,1.67
2023-05-20T21:53:45.072Z,1.83
2023-05-20T21:56:13.006Z,1.83
2023-05-20T21:58:41.884Z,1.80
2023-05-20T22:01:10.479Z,1.50
2023-05-20T22:03:39.987Z,1.60
2023-05-20T22:06:08.273Z,1.60
2023-05-20T22:08:36.233Z,1.70
2023-05-20T22:11:07.501Z,1.23
2023-05-20T22:13:36.394Z,1.60
2023-05-20T22:16:05.088Z,1.47
2023-05-20T22:18:33.281Z,1.80
2023-05-20T22:21:01.358Z,1.73
2023-05-20T22:23:29.878Z,1.90
2023-05-20T22:25:57.948Z,1.53
2023-05-20T22:28:27.320Z,1.40
2023-05-20T22:30:55.863Z,1.50
2023-05-20T22:33:24.408Z,1.50
2023-05-20T22:35:53.581Z,1.73
2023-05-20T22:38:22.038Z,1.97
2023-05-20T22:40:49.953Z,1.70
2023-05-20T22:43:17.893Z,1.90
2023-05-20T22:45:47.275Z,1.70
2023-05-20T22:48:15.361Z,1.70
2023-05-20T22:50:43.277Z,1.70
2023-05-20T22:53:11.260Z,1.77
2023-05-20T22:55:39.729Z,1.37
2023-05-20T22:58:08.152Z,1.50
2023-05-20T23:00:36.442Z,1.83
2023-05-20T23:03:06.401Z,1.60
2023-05-20T23:05:34.489Z,1.57
2023-05-20T23:08:02.573Z,1.77
2023-05-20T23:10:30.617Z,1.60
2023-05-20T23:12:58.534Z,1.70
2023-05-20T23:15:27.741Z,1.50
2023-05-20T23:17:55.753Z,1.30
2023-05-20T23:20:25.752Z,1.30
2023-05-20T23:22:53.672Z,1.43
2023-05-20T23:25:22.049Z,1.50
2023-05-20T23:27:49.999Z,1.50
2023-05-20T23:30:17.919Z,1.60
2023-05-20T23:32:45.916Z,1.30
2023-05-20T23:35:14.390Z,1.67
2023-05-20T23:37:43.690Z,1.50
2023-05-20T23:40:12.267Z,1.80
2023-05-20T23:42:40.559Z,1.40
2023-05-20T23:45:09.443Z,1.70
2023-05-20T23:47:37.855Z,1.60
2023-05-20T23:50:06.320Z,1.60
2023-05-20T23:52:34.302Z,1.40
2023-05-20T23:55:03.658Z,1.40
2023-05-20T23:57:31.576Z,1.57
2023-05-20T23:59:59.896Z,1.60
